createdAt,value
2022-10-19T05:25:13.141Z,100.00
2022-10-19T05:28:16.461Z,100.00
2022-10-19T05:31:26.389Z,100.00
2022-10-19T05:34:29.511Z,100.00
2022-10-19T05:37:35.102Z,100.00
2022-10-19T05:40:38.455Z,100.00
2022-10-19T05:43:42.474Z,100.00
2022-10-19T05:46:45.991Z,100.00
2022-10-19T05:49:51.375Z,100.00
2022-10-19T05:52:54.715Z,100.00
2022-10-19T05:56:00.048Z,100.00
2022-10-19T05:59:05.899Z,100.00
2022-10-19T06:02:14.299Z,100.00
2022-10-19T06:05:17.421Z,100.00
2022-10-19T06:08:22.394Z,100.00
2022-10-19T06:11:45.189Z,100.00
2022-10-19T06:15:01.277Z,100.00
2022-10-19T06:18:04.887Z,100.00
2022-10-19T06:21:11.369Z,100.00
2022-10-19T06:24:14.749Z,100.00
2022-10-19T06:27:19.987Z,100.00
2022-10-19T06:30:25.599Z,100.00
2022-10-19T06:33:30.035Z,100.00
2022-10-19T06:36:34.527Z,100.00
2022-10-19T06:39:37.213Z,100.00
2022-10-19T06:42:40.522Z,100.00
2022-10-19T06:45:43.755Z,100.00
2022-10-19T06:49:16.702Z,100.00
2022-10-19T06:52:24.241Z,100.00
2022-10-19T06:55:48.119Z,100.00
2022-10-19T06:58:52.233Z,100.00
2022-10-19T07:02:15.427Z,100.00
2022-10-19T07:05:18.439Z,100.00
2022-10-19T07:08:21.961Z,100.00
2022-10-19T07:11:24.988Z,100.00
2022-10-19T07:14:31.575Z,100.00
2022-10-19T07:17:46.397Z,100.00
2022-10-19T07:21:00.757Z,100.00
2022-10-19T07:24:23.145Z,100.00
2022-10-19T07:27:37.834Z,100.00
2022-10-19T07:31:06.376Z,100.00
2022-10-19T07:34:29.482Z,98.71
2022-10-19T07:37:32.533Z,98.51
2022-10-19T07:40:38.196Z,97.03
2022-10-19T07:43:42.662Z,95.33
2022-10-19T07:46:45.512Z,94.49
2022-10-19T07:49:48.155Z,93.81
2022-10-19T07:52:54.697Z,91.58
2022-10-19T07:56:07.165Z,90.69
2022-10-19T08:10:47.154Z,85.24
2022-10-19T08:14:27.090Z,84.02
2022-10-19T08:17:30.938Z,83.40
2022-10-19T08:21:22.788Z,82.60
2022-10-19T08:24:46.062Z,80.49
2022-10-19T08:27:48.984Z,79.28
2022-10-19T08:30:52.122Z,80.83
2022-10-19T08:33:55.770Z,79.22
2022-10-19T08:36:58.431Z,77.84
2022-10-19T08:40:01.440Z,77.02
2022-10-19T08:43:30.133Z,74.25
2022-10-19T08:46:55.947Z,76.75
2022-10-19T08:49:59.896Z,73.88
2022-10-19T08:53:11.437Z,72.06
2022-10-19T08:56:45.830Z,71.43
2022-10-19T09:00:12.544Z,70.99
2022-10-19T09:03:56.832Z,70.43
2022-10-19T09:07:26.014Z,70.08
2022-10-19T09:10:32.583Z,67.49
2022-10-19T09:14:04.079Z,70.06
2022-10-19T09:17:28.921Z,68.01
2022-10-19T09:20:41.549Z,69.35
2022-10-19T09:24:21.165Z,65.89
2022-10-19T09:28:45.556Z,65.88
2022-10-19T09:31:53.919Z,64.95
2022-10-19T09:35:07.389Z,65.91
2022-10-19T09:38:32.146Z,64.24
2022-10-19T09:41:59.342Z,63.07
2022-10-19T09:45:14.656Z,65.00
2022-10-19T09:48:37.756Z,62.87
2022-10-19T09:51:47.090Z,62.65
2022-10-19T09:55:03.578Z,62.90
2022-10-19T09:58:13.435Z,64.13
2022-10-19T10:01:41.477Z,61.12
2022-10-19T10:05:15.757Z,62.63
2022-10-19T10:08:22.919Z,61.31
2022-10-19T10:11:48.074Z,61.03
2022-10-19T10:14:56.508Z,63.69
2022-10-19T10:17:59.943Z,61.84
2022-10-19T10:21:25.433Z,61.52
2022-10-19T10:24:45.387Z,64.94
2022-10-19T10:27:57.751Z,62.59
2022-10-19T10:31:05.450Z,56.94
2022-10-19T10:34:28.488Z,59.73
2022-10-19T10:37:42.929Z,57.33
2022-10-19T10:41:01.020Z,54.31
2022-10-19T10:44:17.402Z,52.65
2022-10-19T10:47:21.302Z,55.37
2022-10-19T10:50:32.603Z,55.40
2022-10-19T10:53:40.542Z,57.78
2022-10-19T10:56:54.827Z,55.17
2022-10-19T11:00:14.157Z,55.34
2022-10-19T11:03:25.258Z,56.63
2022-10-19T11:06:27.949Z,58.20
2022-10-19T11:09:43.690Z,58.72
2022-10-19T11:12:54.730Z,59.67
2022-10-19T11:16:24.488Z,60.44
2022-10-19T11:19:37.507Z,60.17
2022-10-19T11:23:05.682Z,60.20
2022-10-19T11:26:25.372Z,59.76
2022-10-19T11:29:52.074Z,59.92
2022-10-19T11:34:21.237Z,62.46
2022-10-19T11:37:50.096Z,62.68
2022-10-19T11:41:39.491Z,59.55
2022-10-19T11:44:59.606Z,62.11
2022-10-19T11:48:14.270Z,61.31
2022-10-19T11:51:33.051Z,63.49
2022-10-19T11:55:27.338Z,64.17
2022-10-19T12:02:24.158Z,63.00
2022-10-19T12:05:48.255Z,66.64
2022-10-19T12:09:09.452Z,66.27
2022-10-19T12:12:44.301Z,62.84
2022-10-19T12:15:53.834Z,62.35
2022-10-19T12:19:00.997Z,62.10
2022-10-19T12:22:07.191Z,60.62
2022-10-19T12:25:14.729Z,61.82
2022-10-19T12:28:35.909Z,62.49
2022-10-19T12:31:40.925Z,61.33
2022-10-19T12:35:04.221Z,63.34
2022-10-19T12:38:14.812Z,61.93
2022-10-19T12:41:37.912Z,62.08
2022-10-19T12:45:01.158Z,62.44
2022-10-19T12:48:12.884Z,61.76
2022-10-19T12:51:18.275Z,60.89
2022-10-19T12:54:27.181Z,61.29
2022-10-19T12:57:30.551Z,61.06
2022-10-19T13:00:37.648Z,61.67
2022-10-19T13:03:43.371Z,59.58
2022-10-19T13:07:17.934Z,58.24
2022-10-19T13:10:41.959Z,62.06
2022-10-19T13:14:07.195Z,59.73
2022-10-19T13:17:52.699Z,60.65
2022-10-19T13:21:44.433Z,60.36
2022-10-19T13:28:59.694Z,62.77
2022-10-19T13:33:03.562Z,63.68
2022-10-19T13:37:03.876Z,62.83
2022-10-19T13:40:49.475Z,62.18
2022-10-19T13:44:35.572Z,63.57
2022-10-19T13:47:58.145Z,63.73
2022-10-19T13:51:41.878Z,60.12
2022-10-19T13:56:00.446Z,62.35
2022-10-19T13:59:41.027Z,62.16
2022-10-19T14:07:33.229Z,65.41
2022-10-19T14:11:00.230Z,64.20
2022-10-19T14:14:28.335Z,64.70
2022-10-19T14:17:34.317Z,65.15
2022-10-19T14:20:39.306Z,65.27
2022-10-19T14:23:42.714Z,63.00
2022-10-19T14:26:46.762Z,64.71
2022-10-19T14:29:52.214Z,65.83
2022-10-19T14:32:59.421Z,64.56
2022-10-19T14:43:42.925Z,66.58
2022-10-19T14:51:35.930Z,68.62
2022-10-19T14:54:48.705Z,68.24
2022-10-19T14:57:53.889Z,68.45
2022-10-19T15:01:07.680Z,68.44
2022-10-19T15:04:36.565Z,69.36
2022-10-19T15:08:21.667Z,69.62
2022-10-19T15:11:33.038Z,69.49
2022-10-19T15:14:56.979Z,70.39
2022-10-19T15:18:43.541Z,71.07
2022-10-19T15:22:14.421Z,71.34
2022-10-19T15:25:28.082Z,73.56
2022-10-19T15:28:40.595Z,74.42
2022-10-19T15:31:47.041Z,73.06
2022-10-19T15:34:49.861Z,72.65
2022-10-19T15:38:15.585Z,71.23
2022-10-19T15:41:21.811Z,72.48
2022-10-19T15:44:42.521Z,72.07
2022-10-19T15:48:10.295Z,71.70
2022-10-19T15:51:25.772Z,73.65
2022-10-19T15:54:28.503Z,74.70
2022-10-19T15:57:37.200Z,76.22
2022-10-19T16:00:41.974Z,77.67
2022-10-19T16:03:46.210Z,79.23
2022-10-19T16:06:48.991Z,78.84
2022-10-19T16:09:53.043Z,78.16
2022-10-19T16:12:55.666Z,80.92
2022-10-19T16:16:11.350Z,80.02
2022-10-19T16:19:14.934Z,80.87
2022-10-19T16:22:19.056Z,82.15
2022-10-19T16:25:22.062Z,82.70
2022-10-19T16:28:25.288Z,81.46
2022-10-19T16:31:28.439Z,81.97
2022-10-19T16:34:31.632Z,80.39
2022-10-19T16:37:35.380Z,82.44
2022-10-19T16:40:40.292Z,83.14
2022-10-19T16:43:43.850Z,81.66
2022-10-19T16:46:47.070Z,83.20
2022-10-19T16:49:58.439Z,82.91
2022-10-19T16:53:10.265Z,83.17
2022-10-19T16:56:13.824Z,84.12
2022-10-19T16:59:19.018Z,83.83
2022-10-19T17:02:22.414Z,84.46
2022-10-19T17:05:26.612Z,84.36
2022-10-19T17:08:36.911Z,84.44
2022-10-19T17:11:48.990Z,84.99
2022-10-19T17:14:52.039Z,84.84
2022-10-19T17:17:55.683Z,84.96
2022-10-19T17:21:07.744Z,84.74
2022-10-19T17:24:21.021Z,86.01
2022-10-19T17:27:25.754Z,86.57
2022-10-19T17:30:30.425Z,85.36
2022-10-19T17:33:36.445Z,83.85
2022-10-19T17:36:44.431Z,87.08
2022-10-19T17:39:51.570Z,88.65
2022-10-19T17:42:55.067Z,87.46
2022-10-19T17:46:03.239Z,90.71
2022-10-19T17:49:07.738Z,89.28
2022-10-19T17:52:10.911Z,83.67
2022-10-19T17:55:14.790Z,86.23
2022-10-19T17:58:18.401Z,85.61
2022-10-19T18:01:22.453Z,84.71
2022-10-19T18:04:26.041Z,85.87
2022-10-19T18:07:28.958Z,83.96
2022-10-19T18:10:35.535Z,82.29
2022-10-19T18:13:39.543Z,81.86
2022-10-19T18:16:47.296Z,82.37
2022-10-19T18:19:50.432Z,82.74
2022-10-19T18:22:53.646Z,82.03
2022-10-19T18:26:01.248Z,82.51
2022-10-19T18:29:12.763Z,83.24
2022-10-19T18:32:16.168Z,84.39
2022-10-19T18:35:19.553Z,84.13
2022-10-19T18:38:22.987Z,83.25
2022-10-19T18:41:27.036Z,85.86
2022-10-19T18:44:33.474Z,85.78
2022-10-19T18:47:37.212Z,85.17
2022-10-19T18:50:41.177Z,86.26
2022-10-19T18:53:45.693Z,85.68
2022-10-19T18:56:49.563Z,85.81
2022-10-19T18:59:55.489Z,88.64
2022-10-19T19:02:58.567Z,87.51
2022-10-19T19:06:03.063Z,87.62
2022-10-19T19:09:09.714Z,89.72
2022-10-19T19:12:12.853Z,88.53
2022-10-19T19:15:16.158Z,89.09
2022-10-19T19:18:19.305Z,89.73
2022-10-19T19:21:29.713Z,89.93
2022-10-19T19:24:33.030Z,90.08
2022-10-19T19:30:47.313Z,88.60
2022-10-19T19:33:50.828Z,87.59
2022-10-19T19:36:54.203Z,85.97
2022-10-19T19:39:58.163Z,86.74
2022-10-19T19:43:01.689Z,87.06
2022-10-19T19:46:09.549Z,87.06
2022-10-19T19:49:13.151Z,86.41
2022-10-19T19:52:16.577Z,85.93
2022-10-19T19:55:20.666Z,85.57
2022-10-19T19:58:23.777Z,86.33
2022-10-19T20:01:27.355Z,86.55
2022-10-19T20:04:30.502Z,85.30
2022-10-19T20:07:33.756Z,85.82
2022-10-19T20:10:39.726Z,85.67
2022-10-19T20:13:45.122Z,84.41
2022-10-19T20:16:48.709Z,85.50
2022-10-19T20:19:51.737Z,85.23
2022-10-19T20:22:54.999Z,83.28
2022-10-19T20:25:58.192Z,83.73
2022-10-19T20:29:02.854Z,83.33
2022-10-19T20:32:05.934Z,85.70
2022-10-19T20:35:09.380Z,86.00
2022-10-19T20:38:12.328Z,87.59
2022-10-19T20:41:15.957Z,87.13
2022-10-19T20:44:22.027Z,87.53
2022-10-19T20:47:25.511Z,86.67
2022-10-19T20:50:29.676Z,85.50
2022-10-19T20:53:32.773Z,85.92
2022-10-19T20:56:37.127Z,86.01
2022-10-19T20:59:43.860Z,85.55
2022-10-19T21:02:46.779Z,87.80
2022-10-19T21:05:49.753Z,86.44
2022-10-19T21:08:52.804Z,85.79
2022-10-19T21:11:55.720Z,87.62
2022-10-19T21:14:58.226Z,87.60
2022-10-19T21:18:01.103Z,88.35
2022-10-19T21:21:22.190Z,89.53
2022-10-19T21:24:27.803Z,89.74
2022-10-19T21:27:30.326Z,90.22
2022-10-19T21:30:39.356Z,89.61
2022-10-19T21:33:42.043Z,90.38
2022-10-19T21:36:45.266Z,90.26
2022-10-19T21:39:47.949Z,90.31
2022-10-19T21:42:50.733Z,90.08
2022-10-19T21:45:53.446Z,89.87
2022-10-19T21:48:56.569Z,91.68
2022-10-19T21:51:59.185Z,91.29
2022-10-19T21:55:02.034Z,90.53
2022-10-19T21:58:05.256Z,89.83
2022-10-19T22:01:08.654Z,90.82
2022-10-19T22:04:17.243Z,90.86
2022-10-19T22:07:19.793Z,92.53
2022-10-19T22:10:23.375Z,92.81
2022-10-19T22:13:25.935Z,94.10
2022-10-19T22:16:29.969Z,94.26
2022-10-19T22:19:32.569Z,95.02
2022-10-19T22:22:35.580Z,97.31
2022-10-19T22:25:38.188Z,96.50
2022-10-19T22:28:41.016Z,97.60
2022-10-19T22:31:44.579Z,97.50
2022-10-19T22:34:47.447Z,98.87
2022-10-19T22:37:49.971Z,98.84
2022-10-19T22:41:49.381Z,99.08
2022-10-19T22:45:10.464Z,97.71
2022-10-19T22:48:13.586Z,97.21
2022-10-19T22:51:16.362Z,97.78
2022-10-19T22:54:19.326Z,98.55
2022-10-19T22:57:22.029Z,98.58
2022-10-19T23:00:25.336Z,98.74
2022-10-19T23:03:27.929Z,99.01
2022-10-19T23:06:30.825Z,99.42
2022-10-19T23:09:33.834Z,99.12
2022-10-19T23:12:36.857Z,99.30
2022-10-19T23:15:43.156Z,99.46
2022-10-19T23:18:46.929Z,100.00
2022-10-19T23:21:49.578Z,99.28
2022-10-19T23:24:52.505Z,100.00
2022-10-19T23:27:55.134Z,100.00
2022-10-19T23:31:07.401Z,99.36
2022-10-19T23:34:10.102Z,100.00
2022-10-19T23:37:12.913Z,100.00
2022-10-19T23:40:21.464Z,100.00
2022-10-19T23:43:24.504Z,100.00
2022-10-19T23:46:27.129Z,100.00
2022-10-19T23:49:30.154Z,100.00
